Time;durP1;ratioP1;P1;durP2;ratioP2;P2;SDS_P1;SDS_P2;PMS_P1;PMS_P2;Temp;Humidity;BMP_temperature;BMP_pressure;BME280_temperature;BME280_humidity;BME280_pressure;Samples;Min_cycle;Max_cycle;Signal;HPM_P1;HPM_P2
2021/08/24 00:01:34;;;;;;;3.27;2.10;;;;;;;;;;5033235;28;20934;-56
2021/08/24 00:04:01;;;;;;;5.60;2.23;;;;;;;;;;5033214;28;20515;-56
2021/08/24 00:06:28;;;;;;;3.13;2.20;;;;;;;;;;5033404;28;20522;-56
2021/08/24 00:08:55;;;;;;;3.47;2.17;;;;;;;;;;5033650;28;20449;-56
2021/08/24 00:11:23;;;;;;;2.70;2.10;;;;;;;;;;5033310;28;20457;-56
2021/08/24 00:13:50;;;;;;;2.27;2.07;;;;;;;;;;5033489;28;20480;-56
2021/08/24 00:16:19;;;;;;;3.67;1.73;;;;;;;;;;5033407;28;20888;-56
2021/08/24 00:18:46;;;;;;;2.83;2.33;;;;;;;;;;5033299;28;20449;-57
2021/08/24 00:21:14;;;;;;;2.30;2.10;;;;;;;;;;5033407;28;20515;-56
2021/08/24 00:23:41;;;;;;;4.63;2.30;;;;;;;;;;5034795;28;20443;-56
2021/08/24 00:26:08;;;;;;;4.00;2.07;;;;;;;;;;5037610;28;20465;-57
2021/08/24 00:28:35;;;;;;;2.20;2.00;;;;;;;;;;5037465;28;20448;-56
2021/08/24 00:31:03;;;;;;;4.23;2.00;;;;;;;;;;5037678;28;20506;-57
2021/08/24 00:33:31;;;;;;;2.63;2.20;;;;;;;;;;5037300;28;20515;-56
2021/08/24 00:35:58;;;;;;;4.13;2.63;;;;;;;;;;5037239;28;20469;-57
2021/08/24 00:38:26;;;;;;;2.60;1.97;;;;;;;;;;5036971;28;20924;-56
2021/08/24 00:40:56;;;;;;;2.30;1.70;;;;;;;;;;5037326;28;20441;-56
2021/08/24 00:43:24;;;;;;;3.00;2.30;;;;;;;;;;5037161;28;20502;-56
2021/08/24 00:45:53;;;;;;;2.53;1.87;;;;;;;;;;5037107;28;20464;-57
2021/08/24 00:48:24;;;;;;;6.17;2.50;;;;;;;;;;5037056;28;20444;-57
2021/08/24 00:50:53;;;;;;;3.57;1.97;;;;;;;;;;5036654;28;20425;-56
2021/08/24 00:53:23;;;;;;;2.67;2.20;;;;;;;;;;5036500;28;20893;-56
2021/08/24 00:58:20;;;;;;;3.73;2.33;;;;;;;;;;5015797;28;20954;-59
2021/08/24 01:00:48;;;;;;;4.90;2.70;;;;;;;;;;5016695;28;20559;-59
2021/08/24 01:03:17;;;;;;;2.97;2.23;;;;;;;;;;5016458;28;20980;-60
2021/08/24 01:05:45;;;;;;;2.63;2.20;;;;;;;;;;5016229;28;20445;-60
2021/08/24 01:08:18;;;;;;;3.03;2.27;;;;;;;;;;5016172;28;20947;-60
2021/08/24 01:10:47;;;;;;;3.90;2.40;;;;;;;;;;5016407;28;20998;-60
2021/08/24 01:13:20;;;;;;;3.03;2.20;;;;;;;;;;5016206;28;20556;-61
2021/08/24 01:15:52;;;;;;;2.57;2.37;;;;;;;;;;5016639;28;20430;-60
2021/08/24 01:18:23;;;;;;;2.90;2.10;;;;;;;;;;5016223;28;20430;-61
2021/08/24 01:21:01;;;;;;;3.27;2.37;;;;;;;;;;5016520;28;20477;-60
2021/08/24 01:23:35;;;;;;;3.37;1.90;;;;;;;;;;5017163;28;20460;-60
2021/08/24 01:26:05;;;;;;;2.70;2.20;;;;;;;;;;5016337;28;20425;-61
2021/08/24 01:28:38;;;;;;;2.90;2.13;;;;;;;;;;5015995;28;20458;-60
2021/08/24 01:31:18;;;;;;;2.93;2.00;;;;;;;;;;5016326;28;20440;-60
2021/08/24 01:33:49;;;;;;;3.20;1.80;;;;;;;;;;5015877;28;20470;-60
2021/08/24 01:36:20;;;;;;;2.30;1.97;;;;;;;;;;5015537;28;20470;-59
2021/08/24 01:38:53;;;;;;;2.17;1.97;;;;;;;;;;5016256;28;20434;-60
2021/08/24 01:41:22;;;;;;;2.13;1.90;;;;;;;;;;5015905;28;20426;-60
2021/08/24 01:43:53;;;;;;;2.87;2.33;;;;;;;;;;5016152;28;20808;-61
2021/08/24 01:46:24;;;;;;;2.17;1.93;;;;;;;;;;5015718;28;20977;-60
2021/08/24 01:48:53;;;;;;;2.93;2.50;;;;;;;;;;5016106;28;20500;-61
2021/08/24 01:51:22;;;;;;;3.40;2.50;;;;;;;;;;5015893;28;20496;-60
2021/08/24 01:53:51;;;;;;;3.40;2.27;;;;;;;;;;5015808;28;20477;-60
2021/08/24 01:56:21;;;;;;;4.93;2.70;;;;;;;;;;5015666;28;20474;-60
2021/08/24 01:58:49;;;;;;;4.50;2.80;;;;;;;;;;5015841;28;20496;-61
2021/08/24 02:01:19;;;;;;;2.40;2.20;;;;;;;;;;5015530;28;20866;-61
2021/08/24 02:03:49;;;;;;;3.30;2.33;;;;;;;;;;5015709;28;20442;-61
2021/08/24 02:06:19;;;;;;;5.03;2.47;;;;;;;;;;5015398;28;20469;-61
2021/08/24 02:08:51;;;;;;;4.00;2.37;;;;;;;;;;5015747;28;20783;-61
2021/08/24 02:11:18;;;;;;;2.40;1.90;;;;;;;;;;5015787;28;20488;-61
2021/08/24 02:13:47;;;;;;;2.60;2.30;;;;;;;;;;5015542;28;20485;-60
2021/08/24 02:16:16;;;;;;;2.70;2.17;;;;;;;;;;5015481;28;20466;-60
2021/08/24 02:18:45;;;;;;;3.67;2.20;;;;;;;;;;5015514;28;20450;-60
2021/08/24 02:21:15;;;;;;;4.13;2.20;;;;;;;;;;5015493;28;20446;-60
2021/08/24 02:23:43;;;;;;;2.63;2.40;;;;;;;;;;5015346;28;20442;-61
2021/08/24 02:26:12;;;;;;;3.00;2.70;;;;;;;;;;5015322;28;20528;-61
2021/08/24 02:28:40;;;;;;;3.10;1.93;;;;;;;;;;5014969;28;20938;-61
2021/08/24 02:31:10;;;;;;;8.23;4.47;;;;;;;;;;5015220;28;20446;-61
2021/08/24 02:33:41;;;;;;;2.70;2.47;;;;;;;;;;5015120;28;20532;-60
2021/08/24 02:36:10;;;;;;;6.00;2.37;;;;;;;;;;5014721;28;20485;-61
2021/08/24 02:38:38;;;;;;;2.60;2.40;;;;;;;;;;5014683;28;20442;-61
2021/08/24 02:41:09;;;;;;;2.60;2.30;;;;;;;;;;5015084;28;20441;-61
2021/08/24 02:43:42;;;;;;;2.90;2.10;;;;;;;;;;5015736;28;20878;-60
2021/08/24 02:46:12;;;;;;;3.10;2.70;;;;;;;;;;5014400;28;20974;-61
2021/08/24 02:48:40;;;;;;;2.73;2.17;;;;;;;;;;5014065;28;20449;-60
2021/08/24 02:51:08;;;;;;;5.80;2.67;;;;;;;;;;5014730;28;20454;-60
2021/08/24 02:53:37;;;;;;;3.80;2.87;;;;;;;;;;5014632;28;20528;-60
2021/08/24 02:56:04;;;;;;;3.40;3.10;;;;;;;;;;5014601;28;20441;-60
2021/08/24 02:58:31;;;;;;;3.00;2.60;;;;;;;;;;5014838;28;20422;-60
2021/08/24 03:01:00;;;;;;;4.00;2.87;;;;;;;;;;5014433;28;20446;-60
2021/08/24 03:03:27;;;;;;;2.93;2.50;;;;;;;;;;5014420;28;20508;-60
2021/08/24 03:05:56;;;;;;;3.73;2.70;;;;;;;;;;5014502;28;20507;-62
2021/08/24 03:08:24;;;;;;;3.00;2.70;;;;;;;;;;5014457;28;20476;-60
2021/08/24 03:10:51;;;;;;;3.67;3.00;;;;;;;;;;5014233;28;20573;-60
2021/08/24 03:13:23;;;;;;;3.65;2.72;;;;;;;;;;5014369;28;20449;-60
2021/08/24 03:15:53;;;;;;;3.50;2.80;;;;;;;;;;5014064;28;20195;-61
2021/08/24 03:18:23;;;;;;;3.07;2.77;;;;;;;;;;5014420;28;20485;-60
2021/08/24 03:20:52;;;;;;;3.30;3.00;;;;;;;;;;5014304;28;20520;-60
2021/08/24 03:23:21;;;;;;;4.03;2.70;;;;;;;;;;5014462;28;20499;-60
2021/08/24 03:25:49;;;;;;;4.05;3.50;;;;;;;;;;5014246;28;20496;-60
2021/08/24 03:28:19;;;;;;;3.13;2.60;;;;;;;;;;5014158;28;20202;-60
2021/08/24 03:30:46;;;;;;;2.90;2.33;;;;;;;;;;5013810;28;20508;-60
2021/08/24 03:33:14;;;;;;;2.83;2.60;;;;;;;;;;5014207;28;20446;-60
2021/08/24 03:35:43;;;;;;;3.83;2.90;;;;;;;;;;5014004;28;20277;-60
2021/08/24 03:38:10;;;;;;;5.93;2.73;;;;;;;;;;5013952;28;20520;-60
2021/08/24 03:40:38;;;;;;;3.33;3.00;;;;;;;;;;5013946;28;20445;-60
2021/08/24 03:43:06;;;;;;;3.67;3.30;;;;;;;;;;5013732;28;20210;-60
2021/08/24 03:45:33;;;;;;;5.05;3.45;;;;;;;;;;5013816;28;20488;-59
2021/08/24 03:48:00;;;;;;;3.30;2.97;;;;;;;;;;5013854;28;20227;-60
2021/08/24 03:50:27;;;;;;;3.10;2.65;;;;;;;;;;5013744;28;20206;-60
2021/08/24 03:52:56;;;;;;;4.53;3.20;;;;;;;;;;5013459;28;20695;-60
2021/08/24 03:55:23;;;;;;;6.25;3.28;;;;;;;;;;5013407;28;20969;-60
2021/08/24 03:57:50;;;;;;;4.63;3.40;;;;;;;;;;5013148;28;20296;-60
2021/08/24 04:00:18;;;;;;;3.65;2.63;;;;;;;;;;5013448;28;20211;-60
2021/08/24 04:02:45;;;;;;;4.60;2.83;;;;;;;;;;5013784;28;20281;-60
2021/08/24 04:08:29;;;;;;;5.75;3.30;;;;;;;;;;5095884;28;20595;-60
2021/08/24 04:10:56;;;;;;;4.95;3.40;;;;;;;;;;5094451;28;20257;-61
2021/08/24 04:13:24;;;;;;;4.50;2.90;;;;;;;;;;5095262;28;20625;-59
2021/08/24 04:15:51;;;;;;;3.85;3.00;;;;;;;;;;5095416;28;20500;-61
2021/08/24 04:18:19;;;;;;;4.07;2.80;;;;;;;;;;5093516;28;20207;-60
2021/08/24 04:20:46;;;;;;;4.55;3.35;;;;;;;;;;5094189;28;20200;-60
2021/08/24 04:23:16;;;;;;;4.55;3.17;;;;;;;;;;5093112;28;20204;-60
2021/08/24 04:25:44;;;;;;;8.82;3.70;;;;;;;;;;5091948;28;20208;-61
2021/08/24 04:28:12;;;;;;;3.60;3.27;;;;;;;;;;5091869;28;20224;-60
2021/08/24 04:30:39;;;;;;;4.00;3.53;;;;;;;;;;5092218;28;20450;-60
2021/08/24 04:33:06;;;;;;;5.87;2.87;;;;;;;;;;5092718;28;20861;-61
2021/08/24 04:35:34;;;;;;;4.88;2.50;;;;;;;;;;5091402;28;20469;-59
2021/08/24 04:38:01;;;;;;;3.30;2.90;;;;;;;;;;5090941;28;20282;-61
2021/08/24 04:40:30;;;;;;;5.32;2.90;;;;;;;;;;5090856;28;20476;-60
2021/08/24 04:42:59;;;;;;;3.90;3.20;;;;;;;;;;5095303;28;20200;-59
2021/08/24 04:45:26;;;;;;;6.60;3.40;;;;;;;;;;5100982;28;20842;-61
2021/08/24 04:47:53;;;;;;;4.07;3.30;;;;;;;;;;5100290;28;20539;-62
2021/08/24 04:50:20;;;;;;;3.60;2.57;;;;;;;;;;5101011;28;20443;-60
2021/08/24 04:52:47;;;;;;;3.60;3.07;;;;;;;;;;5099013;28;20442;-60
2021/08/24 04:55:15;;;;;;;4.47;2.90;;;;;;;;;;5091345;28;20496;-60
2021/08/24 04:57:42;;;;;;;4.10;2.90;;;;;;;;;;5090107;28;20454;-61
2021/08/24 05:00:11;;;;;;;3.70;2.93;;;;;;;;;;5091652;28;20442;-61
2021/08/24 05:02:39;;;;;;;2.90;2.53;;;;;;;;;;5091856;28;20446;-60
2021/08/24 05:05:06;;;;;;;3.43;2.90;;;;;;;;;;5092332;28;20507;-60
2021/08/24 05:07:33;;;;;;;5.37;2.77;;;;;;;;;;5092007;28;20483;-58
2021/08/24 05:10:01;;;;;;;4.70;2.73;;;;;;;;;;5090925;28;20512;-60
2021/08/24 05:12:28;;;;;;;5.00;3.10;;;;;;;;;;5089527;28;20860;-59
2021/08/24 05:14:56;;;;;;;3.30;2.70;;;;;;;;;;5089440;28;20447;-61
2021/08/24 05:17:24;;;;;;;3.50;3.20;;;;;;;;;;5089519;28;20458;-60
2021/08/24 05:19:52;;;;;;;5.50;2.90;;;;;;;;;;5075786;28;20443;-60
2021/08/24 05:22:19;;;;;;;5.47;2.80;;;;;;;;;;5075896;28;20493;-60
2021/08/24 05:24:46;;;;;;;7.40;3.60;;;;;;;;;;5076711;28;20501;-61
2021/08/24 05:27:13;;;;;;;5.60;3.40;;;;;;;;;;5075426;28;21032;-60
2021/08/24 05:29:41;;;;;;;7.40;2.93;;;;;;;;;;5075749;28;20455;-60
2021/08/24 05:32:08;;;;;;;5.13;3.13;;;;;;;;;;5076738;28;20471;-60
2021/08/24 05:34:37;;;;;;;3.70;2.80;;;;;;;;;;5075394;28;20867;-60
2021/08/24 05:37:05;;;;;;;4.80;3.03;;;;;;;;;;5075734;28;20516;-60
2021/08/24 05:39:33;;;;;;;6.63;4.10;;;;;;;;;;5075468;28;20551;-60
2021/08/24 05:42:00;;;;;;;3.97;3.03;;;;;;;;;;5075421;28;20447;-60
2021/08/24 05:44:27;;;;;;;4.20;3.33;;;;;;;;;;5075378;28;20931;-59
2021/08/24 05:46:55;;;;;;;3.17;2.87;;;;;;;;;;5075045;28;20990;-60
2021/08/24 05:49:22;;;;;;;4.70;3.17;;;;;;;;;;5075337;28;20500;-59
2021/08/24 05:51:50;;;;;;;5.10;2.80;;;;;;;;;;5075572;28;20447;-60
2021/08/24 05:54:18;;;;;;;4.33;3.20;;;;;;;;;;5075381;28;20443;-60
2021/08/24 05:56:46;;;;;;;3.57;3.27;;;;;;;;;;5075433;28;20463;-60
2021/08/24 05:59:14;;;;;;;3.50;3.20;;;;;;;;;;5074907;28;20462;-59
2021/08/24 06:01:41;;;;;;;4.40;2.53;;;;;;;;;;5075304;28;20447;-59
2021/08/24 06:04:08;;;;;;;3.67;2.90;;;;;;;;;;5075153;28;20447;-59
2021/08/24 06:06:38;;;;;;;5.00;4.00;;;;;;;;;;5074647;28;20479;-61
2021/08/24 06:09:07;;;;;;;5.20;2.93;;;;;;;;;;5074847;28;20912;-60
2021/08/24 06:11:35;;;;;;;7.30;2.90;;;;;;;;;;5074667;28;21000;-59
2021/08/24 06:14:03;;;;;;;6.00;3.00;;;;;;;;;;5074881;28;20447;-61
2021/08/24 06:16:30;;;;;;;3.67;2.83;;;;;;;;;;5074524;28;20539;-59
2021/08/24 06:18:57;;;;;;;4.93;2.90;;;;;;;;;;5074501;28;20447;-60
2021/08/24 06:21:25;;;;;;;4.10;2.37;;;;;;;;;;5074829;28;20450;-60
2021/08/24 06:23:52;;;;;;;4.20;3.10;;;;;;;;;;5074789;28;20447;-60
2021/08/24 06:26:21;;;;;;;4.60;3.17;;;;;;;;;;5074332;28;20820;-61
2021/08/24 06:28:49;;;;;;;7.33;3.00;;;;;;;;;;5074563;28;20482;-61
2021/08/24 06:31:18;;;;;;;5.43;2.53;;;;;;;;;;5073669;28;20500;-60
2021/08/24 06:33:46;;;;;;;4.73;2.30;;;;;;;;;;5074448;28;20469;-60
2021/08/24 06:36:14;;;;;;;2.70;2.30;;;;;;;;;;5074094;28;20525;-61
2021/08/24 06:38:41;;;;;;;4.63;3.20;;;;;;;;;;5074620;28;20550;-60
2021/08/24 06:41:09;;;;;;;3.83;2.30;;;;;;;;;;5073925;28;20930;-60
2021/08/24 06:43:38;;;;;;;3.57;2.37;;;;;;;;;;5074203;28;20852;-57
2021/08/24 06:46:06;;;;;;;3.53;2.20;;;;;;;;;;5073941;28;20516;-58
2021/08/24 06:48:33;;;;;;;4.00;2.60;;;;;;;;;;5073449;28;20986;-59
2021/08/24 06:51:00;;;;;;;3.90;2.10;;;;;;;;;;5073892;28;20443;-57
2021/08/24 06:53:28;;;;;;;4.23;2.13;;;;;;;;;;5073844;28;20447;-60
2021/08/24 06:55:55;;;;;;;4.50;2.00;;;;;;;;;;5073667;28;20501;-59
2021/08/24 06:58:22;;;;;;;2.63;2.13;;;;;;;;;;5067555;22;20524;-55
2021/08/24 07:00:51;;;;;;;3.23;2.30;;;;;;;;;;5033972;28;20468;-56
2021/08/24 07:03:18;;;;;;;4.47;2.77;;;;;;;;;;5033990;28;20866;-55
2021/08/24 07:05:46;;;;;;;5.23;2.67;;;;;;;;;;5033623;28;20453;-56
2021/08/24 07:08:14;;;;;;;3.40;2.27;;;;;;;;;;5035003;28;20568;-55
2021/08/24 07:10:41;;;;;;;3.30;2.50;;;;;;;;;;5033832;28;20464;-55
2021/08/24 07:13:08;;;;;;;4.47;2.57;;;;;;;;;;5033709;28;20512;-55
2021/08/24 07:15:36;;;;;;;5.20;3.13;;;;;;;;;;5033493;28;20499;-56
2021/08/24 07:18:06;;;;;;;2.63;2.00;;;;;;;;;;5033715;28;20880;-56
2021/08/24 07:20:33;;;;;;;3.20;1.50;;;;;;;;;;5033794;28;20498;-57
2021/08/24 07:23:01;;;;;;;3.70;2.13;;;;;;;;;;5033804;28;20506;-56
2021/08/24 07:25:30;;;;;;;2.70;2.20;;;;;;;;;;5033711;28;20441;-56
2021/08/24 07:27:58;;;;;;;3.80;1.90;;;;;;;;;;5033596;28;20539;-57
2021/08/24 07:30:26;;;;;;;5.27;1.77;;;;;;;;;;5033209;28;20499;-55
2021/08/24 07:32:53;;;;;;;4.40;2.33;;;;;;;;;;5033192;28;20932;-56
2021/08/24 07:35:22;;;;;;;3.70;1.97;;;;;;;;;;5033194;28;20499;-55
2021/08/24 07:37:49;;;;;;;5.27;2.40;;;;;;;;;;5033400;28;20527;-56
2021/08/24 07:40:16;;;;;;;2.40;1.87;;;;;;;;;;5033450;28;20518;-56
2021/08/24 07:42:45;;;;;;;2.07;1.73;;;;;;;;;;5032962;28;20499;-56
2021/08/24 07:45:13;;;;;;;2.50;1.37;;;;;;;;;;5033328;28;20503;-55
2021/08/24 07:47:40;;;;;;;3.50;2.07;;;;;;;;;;5033575;28;20485;-55
2021/08/24 07:50:08;;;;;;;4.10;1.67;;;;;;;;;;5033269;28;20504;-55
2021/08/24 07:52:38;;;;;;;3.40;1.80;;;;;;;;;;5032933;28;20995;-55
2021/08/24 07:55:06;;;;;;;3.90;2.07;;;;;;;;;;5033093;28;20495;-56
2021/08/24 07:57:33;;;;;;;2.33;1.57;;;;;;;;;;5032768;28;20469;-56
2021/08/24 08:00:01;;;;;;;4.20;1.80;;;;;;;;;;5032867;28;20445;-56
2021/08/24 08:02:28;;;;;;;2.90;1.70;;;;;;;;;;5032765;28;20449;-56
2021/08/24 08:04:55;;;;;;;3.70;1.70;;;;;;;;;;5032964;28;20499;-56
2021/08/24 08:07:23;;;;;;;2.37;1.50;;;;;;;;;;5033002;28;20491;-56
2021/08/24 08:09:51;;;;;;;6.20;1.70;;;;;;;;;;5033241;28;20440;-56
2021/08/24 08:12:20;;;;;;;2.60;1.63;;;;;;;;;;5032695;28;20882;-56
2021/08/24 08:14:48;;;;;;;2.10;1.60;;;;;;;;;;5033192;28;20441;-56
2021/08/24 08:17:15;;;;;;;3.10;1.53;;;;;;;;;;5033081;28;20465;-56
2021/08/24 08:19:43;;;;;;;3.87;1.60;;;;;;;;;;5032839;28;20495;-56
2021/08/24 08:22:10;;;;;;;3.37;1.73;;;;;;;;;;5033013;28;20491;-57
2021/08/24 08:24:37;;;;;;;3.27;1.67;;;;;;;;;;5032716;28;20991;-56
2021/08/24 08:27:06;;;;;;;2.63;1.50;;;;;;;;;;5033320;28;20473;-56
2021/08/24 08:29:34;;;;;;;2.87;2.27;;;;;;;;;;5032630;28;20472;-56
2021/08/24 08:32:03;;;;;;;4.80;2.20;;;;;;;;;;5032899;28;20441;-56
2021/08/24 08:34:30;;;;;;;1.87;1.17;;;;;;;;;;5032535;28;20503;-56
2021/08/24 08:36:57;;;;;;;2.90;1.73;;;;;;;;;;5032734;28;20473;-56
2021/08/24 08:39:25;;;;;;;2.00;1.40;;;;;;;;;;5032551;28;20445;-56
2021/08/24 08:42:05;;;;;;;2.57;1.70;;;;;;;;;;5032800;28;20449;-56
2021/08/24 08:44:39;;;;;;;3.50;2.40;;;;;;;;;;5032891;28;20495;-56
2021/08/24 08:47:11;;;;;;;4.77;1.40;;;;;;;;;;5032824;28;20540;-56
2021/08/24 08:49:43;;;;;;;2.40;1.80;;;;;;;;;;5032629;28;20465;-57
2021/08/24 08:52:14;;;;;;;1.50;1.20;;;;;;;;;;5032711;28;20850;-55
2021/08/24 08:54:46;;;;;;;2.17;1.50;;;;;;;;;;5035326;28;20524;-56
2021/08/24 08:57:15;;;;;;;2.70;1.83;;;;;;;;;;5036333;28;20531;-57
2021/08/24 08:59:46;;;;;;;2.07;1.33;;;;;;;;;;5036532;28;20440;-55
2021/08/24 09:02:20;;;;;;;2.73;1.60;;;;;;;;;;5036460;28;20442;-54
2021/08/24 09:04:48;;;;;;;2.63;1.50;;;;;;;;;;5036409;28;20443;-56
2021/08/24 09:07:19;;;;;;;1.50;0.93;;;;;;;;;;5036461;28;20465;-55
2021/08/24 09:09:46;;;;;;;2.20;1.53;;;;;;;;;;5036245;28;20848;-55
2021/08/24 09:12:13;;;;;;;2.00;1.20;;;;;;;;;;5035886;28;20994;-56
2021/08/24 09:14:43;;;;;;;1.60;1.33;;;;;;;;;;5036381;28;20528;-57
2021/08/24 09:17:15;;;;;;;1.33;1.20;;;;;;;;;;5036914;28;20546;-57
2021/08/24 09:19:46;;;;;;;1.77;1.10;;;;;;;;;;5035920;28;20430;-56
2021/08/24 09:22:15;;;;;;;2.33;1.30;;;;;;;;;;5035700;28;20749;-55
2021/08/24 09:24:42;;;;;;;2.23;1.10;;;;;;;;;;5036127;28;20444;-57
2021/08/24 09:27:12;;;;;;;3.53;1.50;;;;;;;;;;5036129;28;20528;-57
2021/08/24 09:29:41;;;;;;;2.07;1.73;;;;;;;;;;5035668;28;20538;-56
2021/08/24 09:32:09;;;;;;;2.53;1.20;;;;;;;;;;5035642;28;20958;-55
2021/08/24 09:34:40;;;;;;;2.80;1.43;;;;;;;;;;5035626;28;20876;-57
2021/08/24 09:37:07;;;;;;;2.83;1.17;;;;;;;;;;5035894;28;20563;-55
2021/08/24 09:39:48;;;;;;;2.93;1.80;;;;;;;;;;5035887;28;20449;-57
2021/08/24 09:42:15;;;;;;;3.17;1.87;;;;;;;;;;5036424;28;20445;-58
2021/08/24 09:44:43;;;;;;;2.40;1.57;;;;;;;;;;5035319;28;20454;-57
2021/08/24 09:47:19;;;;;;;2.07;1.50;;;;;;;;;;5035716;28;20478;-55
2021/08/24 09:49:49;;;;;;;2.60;1.30;;;;;;;;;;5035373;28;20467;-57
2021/08/24 09:52:21;;;;;;;2.07;1.50;;;;;;;;;;5035342;28;20450;-56
2021/08/24 09:54:53;;;;;;;2.97;1.43;;;;;;;;;;5035469;28;20458;-56
2021/08/24 09:57:22;;;;;;;1.63;1.13;;;;;;;;;;5035436;28;20573;-57
2021/08/24 09:59:56;;;;;;;3.07;1.10;;;;;;;;;;5035362;28;20447;-56
2021/08/24 10:02:35;;;;;;;3.30;1.50;;;;;;;;;;5035317;28;20832;-57
2021/08/24 10:05:04;;;;;;;2.37;1.37;;;;;;;;;;5034781;28;20533;-56
2021/08/24 10:07:33;;;;;;;2.70;1.23;;;;;;;;;;5034869;28;20473;-55
2021/08/24 10:10:00;;;;;;;1.30;0.90;;;;;;;;;;5034543;28;20565;-56
2021/08/24 10:12:29;;;;;;;2.03;1.20;;;;;;;;;;5034240;28;20574;-56
2021/08/24 10:14:57;;;;;;;3.43;1.30;;;;;;;;;;5034721;28;20786;-56
2021/08/24 10:17:34;;;;;;;2.20;1.53;;;;;;;;;;5034339;28;20508;-56
2021/08/24 10:20:02;;;;;;;2.43;1.30;;;;;;;;;;5035327;28;20489;-56
2021/08/24 10:22:32;;;;;;;1.20;1.00;;;;;;;;;;5034422;28;20504;-56
2021/08/24 10:25:01;;;;;;;1.97;1.40;;;;;;;;;;5035066;28;20892;-55
2021/08/24 10:27:31;;;;;;;2.17;1.50;;;;;;;;;;5034630;28;20471;-57
2021/08/24 10:29:59;;;;;;;1.73;1.20;;;;;;;;;;5034068;28;20901;-56
2021/08/24 10:32:29;;;;;;;1.40;1.10;;;;;;;;;;5035155;28;20447;-56
2021/08/24 10:34:57;;;;;;;2.20;1.00;;;;;;;;;;5035216;28;20425;-55
2021/08/24 10:37:39;;;;;;;1.70;1.30;;;;;;;;;;5034382;28;20466;-56
2021/08/24 10:40:36;;;;;;;1.60;1.07;;;;;;;;;;5034227;28;20869;-56
2021/08/24 10:43:07;;;;;;;1.17;0.93;;;;;;;;;;5033781;28;20475;-56
2021/08/24 10:45:36;;;;;;;2.40;1.60;;;;;;;;;;5033891;28;20443;-56
2021/08/24 10:48:04;;;;;;;2.07;1.27;;;;;;;;;;5034142;28;20516;-57
2021/08/24 10:50:35;;;;;;;2.23;1.30;;;;;;;;;;5033952;28;20901;-56
2021/08/24 10:53:08;;;;;;;2.57;1.30;;;;;;;;;;5034801;28;20492;-55
2021/08/24 10:55:39;;;;;;;2.23;1.10;;;;;;;;;;5033898;28;20433;-55
2021/08/24 10:58:08;;;;;;;1.50;0.97;;;;;;;;;;5033597;28;20534;-55
2021/08/24 11:00:49;;;;;;;2.10;1.70;;;;;;;;;;5034421;28;20456;-57
2021/08/24 11:03:31;;;;;;;3.00;1.07;;;;;;;;;;5033395;28;20988;-56
2021/08/24 11:06:04;;;;;;;1.57;1.30;;;;;;;;;;5031948;28;20449;-58
2021/08/24 11:08:39;;;;;;;2.20;1.10;;;;;;;;;;5033553;28;20576;-59
2021/08/24 11:11:10;;;;;;;3.30;1.60;;;;;;;;;;5033596;28;20432;-58
2021/08/24 11:13:40;;;;;;;2.80;1.40;;;;;;;;;;5033890;28;20433;-57
2021/08/24 11:16:17;;;;;;;2.70;1.30;;;;;;;;;;5032909;28;20472;-57
2021/08/24 11:18:48;;;;;;;1.40;1.03;;;;;;;;;;5033563;28;20464;-58
2021/08/24 11:21:20;;;;;;;1.53;1.10;;;;;;;;;;5033362;28;20875;-57
2021/08/24 11:23:59;;;;;;;1.70;1.20;;;;;;;;;;5033456;28;20514;-55
2021/08/24 11:26:29;;;;;;;2.27;1.10;;;;;;;;;;5033180;28;20502;-60
2021/08/24 11:29:04;;;;;;;4.40;1.57;;;;;;;;;;5033169;28;20463;-60
2021/08/24 11:31:35;;;;;;;3.53;2.40;;;;;;;;;;5033644;28;20792;-60
2021/08/24 11:34:05;;;;;;;1.57;1.10;;;;;;;;;;5033560;28;20485;-60
2021/08/24 11:36:36;;;;;;;2.10;1.47;;;;;;;;;;5033406;28;20465;-60
2021/08/24 11:39:06;;;;;;;1.40;1.20;;;;;;;;;;5033398;28;20433;-59
2021/08/24 11:41:34;;;;;;;3.20;1.30;;;;;;;;;;5033078;28;20500;-59
2021/08/24 11:44:04;;;;;;;1.90;1.20;;;;;;;;;;5032993;28;20451;-57
2021/08/24 11:46:34;;;;;;;1.97;1.30;;;;;;;;;;5033765;28;20427;-59
2021/08/24 11:49:05;;;;;;;21.13;3.33;;;;;;;;;;5032727;28;20484;-58
2021/08/24 11:51:34;;;;;;;1.73;1.10;;;;;;;;;;5033156;28;20467;-58
2021/08/24 11:54:06;;;;;;;1.40;1.20;;;;;;;;;;5032708;28;20455;-59
2021/08/24 11:56:41;;;;;;;2.00;1.10;;;;;;;;;;5032655;28;20439;-59
2021/08/24 11:59:14;;;;;;;1.73;1.17;;;;;;;;;;5032775;28;20971;-60
2021/08/24 12:01:46;;;;;;;2.67;1.80;;;;;;;;;;5033023;28;20428;-60
2021/08/24 12:04:14;;;;;;;2.10;1.47;;;;;;;;;;5033032;28;20433;-60
2021/08/24 12:06:44;;;;;;;2.43;1.73;;;;;;;;;;5032938;28;20503;-60
2021/08/24 12:09:13;;;;;;;2.70;1.80;;;;;;;;;;5032380;28;20530;-60
2021/08/24 12:11:43;;;;;;;3.87;1.97;;;;;;;;;;5034372;28;20460;-60
2021/08/24 12:14:18;;;;;;;4.83;2.30;;;;;;;;;;5032801;28;21008;-60
2021/08/24 12:16:54;;;;;;;2.57;1.60;;;;;;;;;;5032231;28;20506;-61
2021/08/24 12:19:23;;;;;;;1.67;1.43;;;;;;;;;;5032437;28;20421;-61
2021/08/24 12:21:52;;;;;;;2.20;1.67;;;;;;;;;;5032811;28;20456;-60
2021/08/24 12:24:37;;;;;;;1.67;1.40;;;;;;;;;;5032354;28;20445;-59
2021/08/24 12:27:23;;;;;;;2.40;1.60;;;;;;;;;;5032781;28;20541;-60
2021/08/24 12:29:52;;;;;;;2.00;1.40;;;;;;;;;;5035657;28;20532;-60
2021/08/24 12:32:34;;;;;;;2.57;2.10;;;;;;;;;;5036851;28;20531;-58
2021/08/24 12:35:09;;;;;;;2.40;1.87;;;;;;;;;;5036396;28;20963;-61
2021/08/24 12:37:54;;;;;;;2.67;2.03;;;;;;;;;;5036208;28;21005;-60
2021/08/24 12:40:32;;;;;;;5.17;1.83;;;;;;;;;;5036125;28;20441;-60
2021/08/24 12:43:14;;;;;;;2.73;2.00;;;;;;;;;;5037115;28;20440;-60
2021/08/24 12:45:43;;;;;;;2.80;2.00;;;;;;;;;;5036978;28;20913;-61
2021/08/24 12:48:17;;;;;;;3.67;2.90;;;;;;;;;;5036503;28;20514;-60
2021/08/24 12:50:48;;;;;;;3.00;1.90;;;;;;;;;;5036132;28;20534;-58
2021/08/24 12:53:33;;;;;;;3.30;2.77;;;;;;;;;;5036116;28;20866;-60
2021/08/24 12:56:01;;;;;;;3.97;2.23;;;;;;;;;;5035724;28;20444;-60
2021/08/24 12:58:29;;;;;;;3.87;2.70;;;;;;;;;;5070019;22;20503;-60
2021/08/24 13:01:12;;;;;;;5.40;3.50;;;;;;;;;;5035720;28;21033;-59
2021/08/24 13:03:40;;;;;;;4.33;2.40;;;;;;;;;;5035829;28;20436;-59
2021/08/24 13:06:18;;;;;;;4.10;3.07;;;;;;;;;;5035835;28;20451;-59
2021/08/24 13:08:46;;;;;;;5.20;2.83;;;;;;;;;;5035334;28;20511;-60
2021/08/24 13:11:31;;;;;;;5.67;3.13;;;;;;;;;;5035528;28;20444;-58
2021/08/24 13:13:59;;;;;;;4.63;3.60;;;;;;;;;;5035689;28;20527;-59
2021/08/24 13:16:31;;;;;;;3.97;3.37;;;;;;;;;;5035059;28;20443;-59
2021/08/24 13:18:59;;;;;;;5.03;3.50;;;;;;;;;;5035227;28;20882;-59
2021/08/24 13:21:30;;;;;;;4.20;2.90;;;;;;;;;;5034998;28;20487;-58
2021/08/24 13:24:00;;;;;;;5.60;3.30;;;;;;;;;;5035225;28;20444;-59
2021/08/24 13:26:29;;;;;;;5.50;3.37;;;;;;;;;;5035740;28;20510;-57
2021/08/24 13:28:58;;;;;;;4.77;3.43;;;;;;;;;;5035157;28;20546;-58
2021/08/24 13:31:33;;;;;;;4.67;2.87;;;;;;;;;;5035322;28;20458;-58
2021/08/24 13:34:03;;;;;;;4.43;3.17;;;;;;;;;;5035487;28;20457;-60
2021/08/24 13:36:33;;;;;;;5.60;3.50;;;;;;;;;;5035420;28;20449;-58
2021/08/24 13:39:03;;;;;;;4.10;3.20;;;;;;;;;;5033862;28;20441;-58
2021/08/24 13:41:33;;;;;;;4.70;2.93;;;;;;;;;;5034869;28;20281;-59
2021/08/24 13:44:02;;;;;;;4.17;2.97;;;;;;;;;;5035775;28;20527;-58
2021/08/24 13:46:32;;;;;;;3.93;2.90;;;;;;;;;;5035098;28;20823;-58
2021/08/24 13:49:00;;;;;;;5.33;3.80;;;;;;;;;;5034691;28;20482;-60
2021/08/24 13:51:28;;;;;;;5.23;3.40;;;;;;;;;;5035070;28;20450;-59
2021/08/24 13:53:56;;;;;;;5.30;3.70;;;;;;;;;;5035731;28;20493;-60
2021/08/24 13:56:30;;;;;;;4.00;2.60;;;;;;;;;;5035430;28;20516;-58
2021/08/24 13:58:59;;;;;;;4.03;3.03;;;;;;;;;;5035248;28;20479;-59
2021/08/24 14:01:28;;;;;;;3.90;3.20;;;;;;;;;;5034753;28;20443;-59
2021/08/24 14:03:59;;;;;;;5.30;3.87;;;;;;;;;;5034681;28;20442;-58
2021/08/24 14:06:28;;;;;;;4.17;3.10;;;;;;;;;;5035536;28;20487;-59
2021/08/24 14:08:56;;;;;;;4.27;3.00;;;;;;;;;;5035738;28;20518;-60
2021/08/24 14:11:24;;;;;;;4.70;3.20;;;;;;;;;;5035450;28;20493;-59
2021/08/24 14:13:52;;;;;;;3.50;2.63;;;;;;;;;;5036134;28;20502;-59
2021/08/24 14:16:26;;;;;;;6.23;2.90;;;;;;;;;;5037277;28;20510;-57
2021/08/24 14:18:54;;;;;;;3.83;2.90;;;;;;;;;;5038937;28;20964;-57
2021/08/24 14:21:23;;;;;;;4.57;3.20;;;;;;;;;;5037491;28;20453;-56
2021/08/24 14:23:53;;;;;;;4.80;2.90;;;;;;;;;;5036028;28;20538;-56
2021/08/24 14:26:22;;;;;;;3.70;2.93;;;;;;;;;;5035600;28;20497;-59
2021/08/24 14:28:51;;;;;;;3.60;2.80;;;;;;;;;;5034263;28;20470;-58
2021/08/24 14:31:19;;;;;;;4.37;3.17;;;;;;;;;;5034520;28;20534;-59
2021/08/24 14:33:48;;;;;;;5.00;3.63;;;;;;;;;;5034479;28;20529;-58
2021/08/24 14:36:24;;;;;;;3.97;2.70;;;;;;;;;;5034460;28;20455;-59
2021/08/24 14:38:54;;;;;;;4.43;3.28;;;;;;;;;;5033107;28;20441;-60
2021/08/24 14:41:23;;;;;;;5.47;3.70;;;;;;;;;;5034411;28;20288;-58
2021/08/24 14:43:55;;;;;;;3.80;3.20;;;;;;;;;;5034326;28;20456;-59
2021/08/24 14:46:24;;;;;;;4.60;3.20;;;;;;;;;;5034739;28;20494;-58
2021/08/24 14:48:53;;;;;;;4.00;3.00;;;;;;;;;;5034561;28;20472;-59
2021/08/24 14:51:20;;;;;;;4.20;2.93;;;;;;;;;;5033334;28;20483;-58
2021/08/24 14:53:51;;;;;;;3.57;2.80;;;;;;;;;;5034015;28;20447;-59
2021/08/24 14:56:25;;;;;;;5.43;3.40;;;;;;;;;;5034013;28;20439;-59
2021/08/24 14:59:06;;;;;;;4.83;3.47;;;;;;;;;;5033386;28;20513;-58
2021/08/24 15:01:33;;;;;;;4.70;3.30;;;;;;;;;;5033793;28;20432;-59
2021/08/24 15:04:06;;;;;;;5.20;3.43;;;;;;;;;;5033709;28;20496;-60